Latest METARs, TAFs and NOTAMs for MYNN


---------------------------------------------------------------------------
	(OBSERVATIONS)
MYNN 251800Z 16009KT 9999 SCT018TCU 33/24 A3010 TCU/W NNNN
MYNN 251700Z 15007KT 9999 FEW016TCU 31/22 A3011 TCU/W NNNN
MYNN 251600Z 16007KT 9999 SCT016 31/23 A3012= NNNN
---------------------------------------------------------------------------
	(TERMINAL AREA FORECAST)
MYNN 251615Z 2518/2618 14007KT 9999 SCT020
    BECMG 2601/2603 FEW020=
---------------------------------------------------------------------------
	(NOTAMS)


MYNN A0068/13 VOR Y RWY 14 FEEDER RTE FM MAJUR TO MUNIE NOT AVBL
    VOR Y RWY 14 FEEDER RTE FM MELON TO MUNIE NOT AVBL. SFC -
    UNL, 19 APR 19:55 2013 UNTIL PERM. CREATED: 19 APR 19:51
    2013

MYNN A0069/13 VOR Y RWY 09 FEEDER RTE FM MAJUR TO MUSSE NOT AVBL
    REMOVE PROCEDURE NOTE 'RADAR REQUIRED' FM APP CHART. SFC
    - UNL, 19 APR 19:55 2013 UNTIL PERM. CREATED: 19 APR 19:52
    2013

MYNN A0070/13 VOR Y RWY 32 FEEDER RTE FM PRUNE TO WELKS NOT AVBL
    REMOVE PROCEDURE NOTE 'RADAR REQUIRED' FM APP CHART. SFC
    - UNL, 19 APR 19:55 2013 UNTIL PERM. CREATED: 19 APR 19:54
    2013

MYNN A0076/14 WITH THE EXCEPTION OF MYNN AND MYGF RNAV PROC IN
    THE BAHAMAS ARE NOT AUTH DUE TO AIRSPACE CLASSIFICATION RESTRICTIONS.
    04 JUN 14:00 2014 UNTIL PERM. CREATED: 04 JUN 14:09 2014

MYNN A0094/14 SIX TEMPORARY CRANES WITH RED OBSTRUCTION LIGHTS
    ON TOP LOCATION N 25 04 14.65 W 077 23 53.63 CRANES 427FT
    AMSL 3.81 NM NE OF RWY 27 ILS RWY 14, RNAV (GNSS) RWY 09
    RNAV (GNSS) RWY 14 RNAV (GNSS) RWY 32 VOR Z RWY 09 VOR Y
    RWY 09 VOR Z RWY 14 VOR Y RWY 14 VOR Z RWY 32 VOR Y RWY 32
    SRE RWY 09 SRE RWY 14 SRE RWY 32 CIRCLING CAT C OCA 860 /
    OCH 844 VIS CAT C 4600. 30 JUN 21:00 2014 UNTIL 30 SEP 21:00
    2014. CREATED: 30 JUN 19:35 2014

MYNN A0102/14 CHECKLIST (A) SERIES YEAR=2010 0277 YEAR=2013 0068
    0069 0070 YEAR=2014 0024 0054 0076 0086 0088 0089 0090 0091
    0092 0093 0094 0095 0096 0097 0098 0099 0100 0101 LATEST
    PUBLICATIONS AIP AMDT 01/14 EFFECTIVE MAY 01, 2014 AIC 03/14.
    30 JUN 21:00 2014 UNTIL 30 SEP 23:59 2014. CREATED: 30 JUN
    19:40 2014

---------------------------------------------------------------------------